Time;durP1;ratioP1;P1;durP2;ratioP2;P2;SDS_P1;SDS_P2;PMS_P1;PMS_P2;Temp;Humidity;BMP_temperature;BMP_pressure;BME280_temperature;BME280_humidity;BME280_pressure;Samples;Min_cycle;Max_cycle;Signal;HPM_P1;HPM_P2
2023/08/17 00:00:10;;;;;;;12.98;3.80;;;;;;;;;;5018859;28;20033;-65
2023/08/17 00:02:36;;;;;;;13.13;4.30;;;;;;;;;;5023801;28;20021;-66
2023/08/17 00:05:02;;;;;;;12.70;3.72;;;;;;;;;;5013357;28;20346;-68
2023/08/17 00:07:28;;;;;;;12.85;3.65;;;;;;;;;;5020716;28;20082;-67
2023/08/17 00:09:54;;;;;;;12.50;3.90;;;;;;;;;;5020234;28;20214;-65
2023/08/17 00:12:21;;;;;;;11.43;3.20;;;;;;;;;;5000499;28;21691;-67
2023/08/17 00:14:47;;;;;;;8.98;2.95;;;;;;;;;;5017251;28;20037;-66
2023/08/17 00:17:13;;;;;;;10.18;3.45;;;;;;;;;;5014077;28;20038;-67
2023/08/17 00:19:39;;;;;;;9.35;3.17;;;;;;;;;;5018126;28;20698;-67
2023/08/17 00:22:05;;;;;;;10.73;3.30;;;;;;;;;;5017536;28;20116;-67
2023/08/17 00:24:31;;;;;;;10.02;3.13;;;;;;;;;;5018214;28;20021;-67
2023/08/17 00:26:57;;;;;;;12.48;3.05;;;;;;;;;;5022365;28;20078;-67
2023/08/17 00:29:23;;;;;;;10.50;3.03;;;;;;;;;;5015835;28;20021;-67
2023/08/17 00:31:51;;;;;;;10.30;2.72;;;;;;;;;;5024200;28;20118;-66
2023/08/17 00:34:17;;;;;;;10.70;3.08;;;;;;;;;;5014242;28;20407;-67
2023/08/17 00:36:43;;;;;;;11.93;3.22;;;;;;;;;;5023541;28;20063;-67
2023/08/17 00:39:09;;;;;;;10.63;3.22;;;;;;;;;;5021838;28;20033;-66
2023/08/17 00:41:35;;;;;;;11.88;3.72;;;;;;;;;;5025758;28;20972;-67
2023/08/17 00:44:02;;;;;;;11.95;3.53;;;;;;;;;;5006604;28;20021;-67
2023/08/17 00:46:28;;;;;;;11.90;3.88;;;;;;;;;;5027357;28;20118;-67
2023/08/17 00:48:55;;;;;;;12.35;3.78;;;;;;;;;;5026808;28;20450;-67
2023/08/17 00:51:25;;;;;;;9.75;3.40;;;;;;;;;;5006359;28;21178;-67
2023/08/17 00:53:51;;;;;;;12.18;3.55;;;;;;;;;;5027547;28;20525;-67
2023/08/17 00:56:21;;;;;;;11.27;3.30;;;;;;;;;;5021364;28;20522;-66
2023/08/17 00:58:49;;;;;;;10.43;3.08;;;;;;;;;;5024861;28;20036;-67
2023/08/17 01:01:15;;;;;;;11.27;3.22;;;;;;;;;;5020984;28;20106;-67
2023/08/17 01:03:42;;;;;;;11.80;3.20;;;;;;;;;;5014211;28;20231;-67
2023/08/17 01:06:09;;;;;;;12.55;3.45;;;;;;;;;;5020791;28;20080;-66
2023/08/17 01:08:36;;;;;;;13.00;3.78;;;;;;;;;;4998089;28;20026;-67
2023/08/17 01:11:14;;;;;;;12.10;3.97;;;;;;;;;;5021634;28;20032;-66
2023/08/17 01:13:59;;;;;;;10.63;3.15;;;;;;;;;;5017507;28;20017;-66
2023/08/17 01:16:28;;;;;;;11.15;3.45;;;;;;;;;;5001156;28;20086;-66
2023/08/17 01:18:54;;;;;;;10.90;3.20;;;;;;;;;;5014642;28;20440;-67
2023/08/17 01:21:25;;;;;;;11.68;3.38;;;;;;;;;;5015171;28;21366;-67
2023/08/17 01:23:51;;;;;;;11.48;3.60;;;;;;;;;;5024571;28;20031;-66
2023/08/17 01:26:17;;;;;;;12.52;3.40;;;;;;;;;;5018962;28;20033;-68
2023/08/17 01:28:44;;;;;;;11.15;3.30;;;;;;;;;;5023332;28;20497;-66
2023/08/17 01:31:13;;;;;;;12.07;3.60;;;;;;;;;;5016572;28;20472;-66
2023/08/17 01:33:52;;;;;;;12.63;3.72;;;;;;;;;;4999026;28;20025;-65
2023/08/17 01:36:25;;;;;;;11.95;3.60;;;;;;;;;;4995731;28;20084;-66
2023/08/17 01:38:52;;;;;;;11.55;3.22;;;;;;;;;;5020160;28;20049;-65
2023/08/17 01:41:21;;;;;;;10.45;3.08;;;;;;;;;;5022429;28;20269;-66
2023/08/17 01:43:47;;;;;;;11.27;3.13;;;;;;;;;;5003250;28;20037;-66
2023/08/17 01:46:17;;;;;;;10.82;3.03;;;;;;;;;;4997866;28;20086;-66
2023/08/17 01:48:43;;;;;;;9.50;3.00;;;;;;;;;;5017530;28;20029;-66
2023/08/17 01:51:11;;;;;;;10.13;2.90;;;;;;;;;;5005220;28;20029;-65
2023/08/17 01:53:37;;;;;;;11.45;2.90;;;;;;;;;;5006435;28;20674;-66
2023/08/17 01:56:03;;;;;;;9.88;2.78;;;;;;;;;;5021604;28;20041;-65
2023/08/17 01:58:30;;;;;;;10.20;2.72;;;;;;;;;;5020269;28;20040;-66
2023/08/17 02:00:56;;;;;;;10.75;3.33;;;;;;;;;;5020975;28;20033;-65
2023/08/17 02:03:22;;;;;;;9.15;2.90;;;;;;;;;;5017760;28;20107;-66
2023/08/17 02:05:48;;;;;;;11.35;3.15;;;;;;;;;;5021857;28;20036;-66
2023/08/17 02:08:14;;;;;;;10.35;2.85;;;;;;;;;;5019269;28;20675;-66
2023/08/17 02:10:40;;;;;;;8.93;2.90;;;;;;;;;;5001516;28;20021;-66
2023/08/17 02:13:06;;;;;;;14.18;3.58;;;;;;;;;;5019242;28;20130;-65
2023/08/17 02:15:33;;;;;;;13.00;3.80;;;;;;;;;;5029145;28;20033;-65
2023/08/17 02:18:01;;;;;;;13.32;3.75;;;;;;;;;;5003183;28;20120;-66
2023/08/17 02:20:27;;;;;;;12.60;3.70;;;;;;;;;;5024457;28;20126;-66
2023/08/17 02:22:54;;;;;;;13.95;3.65;;;;;;;;;;5020103;28;20104;-66
2023/08/17 02:25:20;;;;;;;13.10;3.92;;;;;;;;;;5023848;28;20036;-66
2023/08/17 02:27:46;;;;;;;12.55;3.88;;;;;;;;;;5002600;28;20491;-65
2023/08/17 02:30:13;;;;;;;12.52;3.78;;;;;;;;;;5000176;28;20060;-67
2023/08/17 02:32:39;;;;;;;14.30;4.03;;;;;;;;;;5021862;28;20546;-66
2023/08/17 02:35:05;;;;;;;11.70;4.28;;;;;;;;;;5020286;28;20033;-66
2023/08/17 02:37:31;;;;;;;14.82;4.38;;;;;;;;;;5012371;28;20059;-66
2023/08/17 02:39:58;;;;;;;15.57;4.05;;;;;;;;;;5012154;28;20044;-66
2023/08/17 02:42:24;;;;;;;15.43;4.10;;;;;;;;;;5025054;28;20021;-66
2023/08/17 02:44:50;;;;;;;15.77;4.63;;;;;;;;;;5009212;28;20059;-66
2023/08/17 02:47:19;;;;;;;14.07;3.85;;;;;;;;;;5006012;28;20044;-65
2023/08/17 02:49:45;;;;;;;14.48;3.75;;;;;;;;;;5005557;28;20025;-65
2023/08/17 02:52:11;;;;;;;14.38;4.07;;;;;;;;;;5027842;28;20474;-66
2023/08/17 02:54:37;;;;;;;11.35;3.67;;;;;;;;;;5028276;28;20400;-66
2023/08/17 02:57:04;;;;;;;12.30;3.58;;;;;;;;;;5003790;28;20036;-66
2023/08/17 02:59:30;;;;;;;11.50;3.33;;;;;;;;;;5006572;28;20032;-67
2023/08/17 03:01:57;;;;;;;11.60;3.15;;;;;;;;;;5008315;28;20499;-66
2023/08/17 03:04:24;;;;;;;12.60;3.50;;;;;;;;;;5005362;28;20040;-67
2023/08/17 03:06:50;;;;;;;10.77;2.83;;;;;;;;;;5004342;28;20509;-68
2023/08/17 03:09:16;;;;;;;10.93;2.95;;;;;;;;;;5018209;28;20037;-68
2023/08/17 03:11:42;;;;;;;14.20;3.42;;;;;;;;;;5004824;28;20479;-66
2023/08/17 03:14:08;;;;;;;13.32;3.53;;;;;;;;;;5001709;28;20043;-65
2023/08/17 03:16:35;;;;;;;11.95;3.60;;;;;;;;;;5020825;28;20491;-65
2023/08/17 03:19:01;;;;;;;10.75;3.50;;;;;;;;;;5021752;28;20041;-66
2023/08/17 03:21:27;;;;;;;12.98;3.60;;;;;;;;;;5006102;28;20029;-67
2023/08/17 03:23:53;;;;;;;13.07;3.90;;;;;;;;;;5026457;28;20091;-66
2023/08/17 03:26:20;;;;;;;10.35;3.10;;;;;;;;;;5024405;28;20824;-66
2023/08/17 03:28:46;;;;;;;10.93;3.10;;;;;;;;;;5005647;28;20028;-65
2023/08/17 03:31:12;;;;;;;10.68;3.28;;;;;;;;;;4999960;28;20071;-66
2023/08/17 03:33:40;;;;;;;13.00;3.63;;;;;;;;;;5010545;28;20037;-66
2023/08/17 03:36:06;;;;;;;11.95;3.30;;;;;;;;;;5025587;28;20297;-66
2023/08/17 03:38:32;;;;;;;11.43;3.40;;;;;;;;;;5027229;28;20040;-66
2023/08/17 03:40:59;;;;;;;13.15;3.63;;;;;;;;;;5025052;28;20589;-65
2023/08/17 03:43:26;;;;;;;12.25;3.35;;;;;;;;;;4997892;28;20028;-66
2023/08/17 03:45:53;;;;;;;12.00;3.80;;;;;;;;;;5005757;28;20713;-66
2023/08/17 03:48:19;;;;;;;9.65;3.28;;;;;;;;;;5001158;28;20029;-67
2023/08/17 03:50:45;;;;;;;11.90;3.90;;;;;;;;;;5020632;28;20035;-67
2023/08/17 03:53:11;;;;;;;11.30;3.30;;;;;;;;;;5021866;28;20037;-65
2023/08/17 03:55:38;;;;;;;15.48;3.67;;;;;;;;;;5021927;28;20659;-65
2023/08/17 03:58:04;;;;;;;13.20;3.45;;;;;;;;;;5001243;28;20053;-65
2023/08/17 04:00:30;;;;;;;11.52;3.42;;;;;;;;;;5020353;28;20032;-67
2023/08/17 04:02:56;;;;;;;12.40;3.60;;;;;;;;;;4999432;28;20033;-65
2023/08/17 04:05:22;;;;;;;14.23;3.72;;;;;;;;;;5021969;28;20026;-65
2023/08/17 04:07:48;;;;;;;12.55;3.67;;;;;;;;;;5009639;28;20021;-65
2023/08/17 04:10:14;;;;;;;11.18;3.53;;;;;;;;;;5007521;28;20312;-65
2023/08/17 04:12:41;;;;;;;12.05;3.33;;;;;;;;;;5017308;28;20055;-66
2023/08/17 04:15:07;;;;;;;11.93;3.92;;;;;;;;;;5001185;28;20403;-66
2023/08/17 04:17:33;;;;;;;12.43;3.58;;;;;;;;;;5020283;28;20391;-66
2023/08/17 04:19:59;;;;;;;13.85;4.00;;;;;;;;;;5015063;28;20034;-67
2023/08/17 04:22:25;;;;;;;11.70;3.72;;;;;;;;;;5019664;28;20032;-66
2023/08/17 04:24:52;;;;;;;14.10;3.72;;;;;;;;;;5021617;28;20033;-66
2023/08/17 04:27:18;;;;;;;11.95;3.92;;;;;;;;;;5021040;28;20063;-66
2023/08/17 04:29:44;;;;;;;15.93;4.35;;;;;;;;;;5022765;28;20268;-66
2023/08/17 04:32:15;;;;;;;12.57;3.80;;;;;;;;;;4999876;28;20057;-66
2023/08/17 04:34:42;;;;;;;12.25;4.07;;;;;;;;;;5026704;28;20310;-66
2023/08/17 04:37:08;;;;;;;11.20;3.65;;;;;;;;;;5022363;28;20057;-66
2023/08/17 04:39:34;;;;;;;12.02;3.60;;;;;;;;;;5005938;28;20025;-66
2023/08/17 04:42:00;;;;;;;14.05;3.58;;;;;;;;;;5022872;28;20170;-66
2023/08/17 04:44:26;;;;;;;11.05;3.10;;;;;;;;;;5003388;28;20231;-66
2023/08/17 04:46:53;;;;;;;12.75;3.65;;;;;;;;;;5003779;28;20821;-66
2023/08/17 04:49:19;;;;;;;12.20;3.40;;;;;;;;;;5017931;28;20064;-66
2023/08/17 04:51:45;;;;;;;10.38;3.35;;;;;;;;;;5018997;28;20475;-66
2023/08/17 04:54:11;;;;;;;11.98;3.45;;;;;;;;;;5021512;28;20025;-66
2023/08/17 04:56:37;;;;;;;12.88;4.25;;;;;;;;;;5008366;28;20029;-67
2023/08/17 04:59:03;;;;;;;13.18;4.20;;;;;;;;;;5005354;28;20032;-66
2023/08/17 05:01:30;;;;;;;11.85;4.03;;;;;;;;;;5009158;28;20576;-66
2023/08/17 05:03:56;;;;;;;12.40;3.80;;;;;;;;;;5026268;28;20029;-66
2023/08/17 05:06:22;;;;;;;10.02;3.53;;;;;;;;;;5006552;28;20416;-66
2023/08/17 05:08:48;;;;;;;12.10;3.70;;;;;;;;;;5026480;28;20480;-66
2023/08/17 05:11:14;;;;;;;13.23;3.58;;;;;;;;;;5019941;28;20483;-69
2023/08/17 05:13:40;;;;;;;11.80;3.78;;;;;;;;;;5009134;28;20320;-66
2023/08/17 05:16:07;;;;;;;15.50;3.97;;;;;;;;;;5003279;28;20812;-65
2023/08/17 05:18:33;;;;;;;14.43;3.85;;;;;;;;;;5008617;28;20132;-65
2023/08/17 05:21:00;;;;;;;14.30;4.22;;;;;;;;;;5027644;28;20326;-65
2023/08/17 05:23:26;;;;;;;13.35;3.83;;;;;;;;;;5005872;28;20366;-66
2023/08/17 05:25:53;;;;;;;10.57;3.47;;;;;;;;;;5026694;28;20332;-65
2023/08/17 05:28:19;;;;;;;12.63;3.97;;;;;;;;;;5004997;28;20020;-66
2023/08/17 05:30:45;;;;;;;11.13;3.47;;;;;;;;;;5022572;28;20033;-65
2023/08/17 05:33:11;;;;;;;11.63;3.80;;;;;;;;;;5025238;28;20523;-65
2023/08/17 05:35:37;;;;;;;11.93;4.22;;;;;;;;;;5026732;28;20049;-66
2023/08/17 05:38:04;;;;;;;11.68;3.47;;;;;;;;;;5001754;28;20167;-66
2023/08/17 05:40:33;;;;;;;14.38;3.83;;;;;;;;;;5007335;28;20043;-66
2023/08/17 05:42:59;;;;;;;13.00;3.97;;;;;;;;;;5022493;28;20508;-66
2023/08/17 05:45:25;;;;;;;14.57;4.10;;;;;;;;;;5020477;28;20116;-67
2023/08/17 05:47:52;;;;;;;11.07;4.00;;;;;;;;;;5021309;28;20032;-66
2023/08/17 05:50:18;;;;;;;14.50;4.18;;;;;;;;;;5020881;28;20675;-66
2023/08/17 05:52:45;;;;;;;10.98;3.83;;;;;;;;;;5023918;28;20029;-65
2023/08/17 05:55:11;;;;;;;14.35;4.20;;;;;;;;;;5016936;28;20064;-65
2023/08/17 05:57:37;;;;;;;13.70;4.03;;;;;;;;;;5001890;28;20120;-65
2023/08/17 06:00:03;;;;;;;25.20;5.13;;;;;;;;;;5018599;28;20483;-65
2023/08/17 06:02:30;;;;;;;26.52;5.90;;;;;;;;;;5003548;28;20041;-65
2023/08/17 06:04:56;;;;;;;22.40;5.05;;;;;;;;;;5001501;28;20533;-65
2023/08/17 06:07:22;;;;;;;22.10;5.43;;;;;;;;;;5018158;28;20147;-65
2023/08/17 06:09:48;;;;;;;13.93;4.68;;;;;;;;;;5021846;28;20040;-65
2023/08/17 06:12:14;;;;;;;15.85;4.78;;;;;;;;;;5017637;28;20037;-65
2023/08/17 06:14:41;;;;;;;13.63;4.15;;;;;;;;;;5003288;28;20032;-65
2023/08/17 06:17:08;;;;;;;14.90;4.32;;;;;;;;;;5015437;28;20602;-65
2023/08/17 06:19:34;;;;;;;12.05;4.45;;;;;;;;;;5020684;28;20061;-65
2023/08/17 06:22:00;;;;;;;14.80;4.68;;;;;;;;;;5002408;28;20029;-66
2023/08/17 06:24:26;;;;;;;15.05;4.43;;;;;;;;;;5020191;28;20029;-66
2023/08/17 06:26:53;;;;;;;14.02;3.83;;;;;;;;;;5003142;28;20506;-66
2023/08/17 06:29:19;;;;;;;17.27;4.88;;;;;;;;;;5019922;28;20389;-66
2023/08/17 06:31:45;;;;;;;13.45;3.88;;;;;;;;;;5002936;28;20033;-66
2023/08/17 06:34:12;;;;;;;10.13;3.40;;;;;;;;;;5019373;28;20061;-67
2023/08/17 06:36:39;;;;;;;13.23;3.60;;;;;;;;;;5021172;28;20581;-67
2023/08/17 06:39:05;;;;;;;9.27;2.88;;;;;;;;;;5014325;28;20026;-67
2023/08/17 06:41:31;;;;;;;10.80;3.42;;;;;;;;;;5018041;28;20033;-67
2023/08/17 06:43:57;;;;;;;10.23;2.80;;;;;;;;;;5018443;28;20471;-67
2023/08/17 06:46:24;;;;;;;11.30;3.47;;;;;;;;;;5021714;28;20558;-67
2023/08/17 06:48:50;;;;;;;11.82;3.47;;;;;;;;;;5018515;28;20033;-67
2023/08/17 06:51:16;;;;;;;12.57;3.80;;;;;;;;;;5000084;28;20037;-67
2023/08/17 06:53:43;;;;;;;13.32;4.03;;;;;;;;;;5021256;28;20025;-67
2023/08/17 06:56:10;;;;;;;16.35;3.75;;;;;;;;;;4999700;28;20124;-67
2023/08/17 06:58:36;;;;;;;13.80;3.50;;;;;;;;;;5023610;28;20171;-67
2023/08/17 07:01:02;;;;;;;19.17;4.65;;;;;;;;;;5019667;28;20029;-67
2023/08/17 07:03:28;;;;;;;17.77;4.57;;;;;;;;;;5021683;28;20036;-67
2023/08/17 07:05:54;;;;;;;18.05;4.47;;;;;;;;;;5003903;28;20103;-67
2023/08/17 07:08:21;;;;;;;13.27;4.00;;;;;;;;;;5000962;28;20041;-68
2023/08/17 07:10:47;;;;;;;16.45;4.43;;;;;;;;;;5024783;28;20440;-67
2023/08/17 07:13:13;;;;;;;12.63;3.88;;;;;;;;;;5020157;28;20029;-67
2023/08/17 07:15:39;;;;;;;12.27;3.60;;;;;;;;;;5023470;28;20494;-67
2023/08/17 07:18:05;;;;;;;13.48;3.50;;;;;;;;;;5020636;28;20155;-67
2023/08/17 07:20:32;;;;;;;16.90;4.57;;;;;;;;;;5021207;28;20033;-68
2023/08/17 07:22:58;;;;;;;18.15;4.50;;;;;;;;;;5022996;28;20119;-66
2023/08/17 07:25:24;;;;;;;13.70;3.90;;;;;;;;;;5017091;28;20503;-67
2023/08/17 07:27:50;;;;;;;14.02;4.00;;;;;;;;;;5020812;28;20503;-68
2023/08/17 07:30:16;;;;;;;14.85;4.40;;;;;;;;;;5020147;28;20390;-67
2023/08/17 07:32:42;;;;;;;11.63;4.03;;;;;;;;;;5001665;28;20056;-66
2023/08/17 07:35:09;;;;;;;16.02;4.97;;;;;;;;;;5004402;28;20029;-68
2023/08/17 07:37:36;;;;;;;12.85;4.00;;;;;;;;;;5024120;28;20475;-66
2023/08/17 07:40:05;;;;;;;13.23;3.67;;;;;;;;;;5004214;28;20036;-66
2023/08/17 07:42:31;;;;;;;15.18;4.53;;;;;;;;;;5020027;28;20029;-65
2023/08/17 07:44:58;;;;;;;13.32;4.00;;;;;;;;;;5023146;28;20193;-65
2023/08/17 07:47:24;;;;;;;16.08;4.50;;;;;;;;;;5026634;28;20129;-66
2023/08/17 07:49:50;;;;;;;14.38;4.72;;;;;;;;;;5007690;28;20033;-65
2023/08/17 07:52:16;;;;;;;14.73;3.83;;;;;;;;;;5027985;28;20090;-66
2023/08/17 07:54:42;;;;;;;12.63;3.95;;;;;;;;;;5029736;28;20056;-66
2023/08/17 07:57:09;;;;;;;11.27;3.90;;;;;;;;;;5011269;28;20032;-68
2023/08/17 07:59:35;;;;;;;12.00;3.90;;;;;;;;;;5033074;28;20592;-66
2023/08/17 08:02:01;;;;;;;13.60;4.30;;;;;;;;;;5009936;28;20539;-66
2023/08/17 08:04:27;;;;;;;18.52;4.38;;;;;;;;;;5010944;28;20100;-66
2023/08/17 08:06:54;;;;;;;14.23;4.15;;;;;;;;;;5026411;28;20096;-66
2023/08/17 08:09:21;;;;;;;12.00;3.88;;;;;;;;;;5027388;28;20052;-66
2023/08/17 08:11:47;;;;;;;14.75;4.30;;;;;;;;;;5028400;28;20487;-66
2023/08/17 08:14:13;;;;;;;15.15;4.47;;;;;;;;;;5025633;28;20033;-67
2023/08/17 08:16:39;;;;;;;14.77;4.05;;;;;;;;;;5026735;28;20025;-68
2023/08/17 08:19:06;;;;;;;14.07;4.45;;;;;;;;;;5024193;28;20586;-68
2023/08/17 08:21:32;;;;;;;15.15;4.40;;;;;;;;;;5008344;28;20329;-66
2023/08/17 08:23:58;;;;;;;14.20;4.20;;;;;;;;;;5005953;28;20035;-65
2023/08/17 08:26:24;;;;;;;14.15;3.95;;;;;;;;;;5030117;28;20021;-67
2023/08/17 08:28:53;;;;;;;14.65;3.90;;;;;;;;;;5032648;28;20388;-66
2023/08/17 08:31:20;;;;;;;14.98;4.38;;;;;;;;;;5029072;28;20319;-66
2023/08/17 08:33:46;;;;;;;15.30;4.18;;;;;;;;;;5015272;28;20040;-66
2023/08/17 08:36:18;;;;;;;12.85;3.90;;;;;;;;;;5030467;28;20639;-67
2023/08/17 08:38:44;;;;;;;17.40;4.13;;;;;;;;;;5024067;28;20083;-69
2023/08/17 08:41:12;;;;;;;18.02;4.28;;;;;;;;;;5008516;28;20167;-66
2023/08/17 08:43:38;;;;;;;10.85;3.80;;;;;;;;;;5011036;28;20021;-66
2023/08/17 08:46:05;;;;;;;12.25;3.90;;;;;;;;;;5026242;28;20028;-66
2023/08/17 08:48:32;;;;;;;15.55;4.03;;;;;;;;;;5030821;28;20336;-67
2023/08/17 08:51:01;;;;;;;10.73;3.25;;;;;;;;;;5012704;28;20033;-66
2023/08/17 08:53:43;;;;;;;11.98;4.03;;;;;;;;;;5028317;28;20017;-66
2023/08/17 08:56:15;;;;;;;16.65;3.97;;;;;;;;;;5023920;28;20025;-66
2023/08/17 08:58:42;;;;;;;16.17;3.90;;;;;;;;;;5028041;28;20040;-66
2023/08/17 09:01:09;;;;;;;15.27;4.18;;;;;;;;;;5026195;28;20240;-66
2023/08/17 09:03:36;;;;;;;13.43;3.65;;;;;;;;;;5027918;28;20017;-68
2023/08/17 09:06:03;;;;;;;11.65;4.00;;;;;;;;;;5005224;28;20024;-66
2023/08/17 09:08:30;;;;;;;15.35;4.13;;;;;;;;;;5007007;28;20029;-66
2023/08/17 09:10:57;;;;;;;16.88;4.40;;;;;;;;;;5023751;28;20013;-67
2023/08/17 09:13:23;;;;;;;12.82;3.85;;;;;;;;;;5015536;28;20515;-67
2023/08/17 09:15:49;;;;;;;12.38;4.20;;;;;;;;;;5020158;28;20418;-66
2023/08/17 09:18:17;;;;;;;14.60;3.80;;;;;;;;;;5014754;28;20064;-66
2023/08/17 09:20:45;;;;;;;13.27;3.90;;;;;;;;;;5014738;28;20021;-67
2023/08/17 09:23:13;;;;;;;13.35;4.07;;;;;;;;;;5014428;28;20487;-67
2023/08/17 09:25:39;;;;;;;14.35;3.80;;;;;;;;;;5016562;28;20067;-66
2023/08/17 09:28:15;;;;;;;15.77;4.15;;;;;;;;;;5014502;28;20033;-68
2023/08/17 09:30:52;;;;;;;14.45;3.70;;;;;;;;;;5017177;28;20091;-68
2023/08/17 09:33:18;;;;;;;13.68;4.13;;;;;;;;;;5015796;28;20033;-67
2023/08/17 09:35:44;;;;;;;15.80;4.35;;;;;;;;;;5017616;28;20523;-67
2023/08/17 09:38:11;;;;;;;14.80;4.15;;;;;;;;;;5017135;28;20368;-66
2023/08/17 09:40:37;;;;;;;18.20;4.32;;;;;;;;;;5016440;28;20096;-66
2023/08/17 09:43:03;;;;;;;11.73;3.83;;;;;;;;;;5017840;28;20581;-66
2023/08/17 09:45:31;;;;;;;11.98;3.42;;;;;;;;;;4999293;28;20025;-65
2023/08/17 09:48:00;;;;;;;19.23;4.45;;;;;;;;;;5021902;28;20034;-66
2023/08/17 09:50:26;;;;;;;12.85;4.00;;;;;;;;;;5020991;28;20051;-66
2023/08/17 09:52:55;;;;;;;15.23;3.55;;;;;;;;;;5019786;28;20484;-67
2023/08/17 09:55:24;;;;;;;14.75;4.15;;;;;;;;;;5019034;28;24426;-66
2023/08/17 09:57:51;;;;;;;12.15;3.55;;;;;;;;;;5018514;28;20055;-66
2023/08/17 10:00:18;;;;;;;14.88;3.95;;;;;;;;;;5021003;28;20028;-66
2023/08/17 10:02:51;;;;;;;15.60;4.10;;;;;;;;;;5006689;28;20757;-66
2023/08/17 10:05:20;;;;;;;15.23;4.03;;;;;;;;;;5015274;28;20486;-67
2023/08/17 10:07:49;;;;;;;15.15;3.95;;;;;;;;;;5019360;28;20041;-66
2023/08/17 10:10:17;;;;;;;14.95;3.90;;;;;;;;;;5018349;28;20369;-66
2023/08/17 10:12:49;;;;;;;14.85;3.65;;;;;;;;;;5021819;28;20570;-67
2023/08/17 10:15:16;;;;;;;14.45;4.10;;;;;;;;;;5015773;28;20112;-67
2023/08/17 10:18:08;;;;;;;14.93;4.07;;;;;;;;;;5020220;28;20534;-66
2023/08/17 10:20:35;;;;;;;14.52;3.90;;;;;;;;;;5019573;28;20114;-67
2023/08/17 10:23:11;;;;;;;10.25;3.42;;;;;;;;;;5022539;28;20529;-67
2023/08/17 10:25:38;;;;;;;14.13;3.95;;;;;;;;;;5019960;28;20033;-66
2023/08/17 10:28:04;;;;;;;11.75;3.28;;;;;;;;;;5013171;28;20263;-66
2023/08/17 10:30:30;;;;;;;12.85;4.05;;;;;;;;;;5004850;28;20645;-67
2023/08/17 10:32:56;;;;;;;13.07;4.00;;;;;;;;;;5018577;28;20342;-66
2023/08/17 10:35:23;;;;;;;13.60;3.90;;;;;;;;;;5019524;28;20049;-67
2023/08/17 10:37:49;;;;;;;16.00;3.95;;;;;;;;;;5018619;28;20415;-67
2023/08/17 10:40:15;;;;;;;18.33;4.75;;;;;;;;;;5000246;28;20119;-68
2023/08/17 10:42:42;;;;;;;13.40;3.97;;;;;;;;;;5019037;28;20107;-67
2023/08/17 10:45:28;;;;;;;14.18;3.67;;;;;;;;;;5021336;28;20100;-66
2023/08/17 10:48:09;;;;;;;15.02;4.47;;;;;;;;;;5025317;28;20026;-67
2023/08/17 10:50:39;;;;;;;20.00;4.45;;;;;;;;;;5016686;28;20141;-67
2023/08/17 10:53:10;;;;;;;15.27;4.00;;;;;;;;;;5021581;28;20040;-67
2023/08/17 10:55:40;;;;;;;17.30;4.38;;;;;;;;;;5024629;28;20030;-67
2023/08/17 10:58:13;;;;;;;13.68;4.15;;;;;;;;;;4994950;28;20107;-67
2023/08/17 11:00:39;;;;;;;15.15;4.65;;;;;;;;;;5019291;28;20033;-67
2023/08/17 11:03:07;;;;;;;12.23;4.00;;;;;;;;;;5017697;28;20552;-67
2023/08/17 11:05:38;;;;;;;17.10;4.72;;;;;;;;;;5019808;28;20459;-67
2023/08/17 11:08:13;;;;;;;16.33;4.30;;;;;;;;;;4998581;28;20168;-67
2023/08/17 11:10:39;;;;;;;16.48;4.40;;;;;;;;;;5016561;28;20029;-67
2023/08/17 11:13:07;;;;;;;16.52;4.32;;;;;;;;;;5011398;28;20818;-67
2023/08/17 11:15:42;;;;;;;16.58;4.80;;;;;;;;;;5020480;28;20035;-67
2023/08/17 11:18:08;;;;;;;16.65;4.45;;;;;;;;;;5005649;28;20037;-67
2023/08/17 11:20:35;;;;;;;14.60;3.47;;;;;;;;;;5020526;28;20484;-67
2023/08/17 11:23:02;;;;;;;15.70;4.07;;;;;;;;;;5021313;28;20538;-67
2023/08/17 11:25:28;;;;;;;15.40;4.22;;;;;;;;;;5021141;28;20033;-67
2023/08/17 11:27:55;;;;;;;15.35;4.00;;;;;;;;;;5024339;28;20484;-67
2023/08/17 11:30:25;;;;;;;13.10;4.47;;;;;;;;;;5017706;28;20035;-67
2023/08/17 11:32:51;;;;;;;14.63;4.18;;;;;;;;;;5016200;28;20037;-67
2023/08/17 11:35:18;;;;;;;19.73;4.50;;;;;;;;;;5002563;28;20138;-67
2023/08/17 11:37:44;;;;;;;14.82;4.40;;;;;;;;;;5021762;28;20563;-68
2023/08/17 11:40:13;;;;;;;17.63;4.30;;;;;;;;;;5019116;28;20025;-67
2023/08/17 11:42:39;;;;;;;16.58;4.65;;;;;;;;;;5019410;28;20020;-68
2023/08/17 11:45:09;;;;;;;13.23;3.40;;;;;;;;;;5002935;28;20490;-67
2023/08/17 11:47:36;;;;;;;14.88;4.13;;;;;;;;;;5020618;28;20028;-67
2023/08/17 11:50:04;;;;;;;14.80;3.95;;;;;;;;;;5018170;28;20073;-68
2023/08/17 11:52:34;;;;;;;14.75;4.10;;;;;;;;;;5020930;28;20029;-67
2023/08/17 11:55:01;;;;;;;16.30;4.22;;;;;;;;;;5020848;28;20048;-66
2023/08/17 11:57:27;;;;;;;17.58;4.60;;;;;;;;;;5001780;28;20024;-67
2023/08/17 11:59:57;;;;;;;17.33;4.13;;;;;;;;;;5019435;28;20032;-66
2023/08/17 12:02:27;;;;;;;15.82;4.43;;;;;;;;;;5023610;28;20017;-66
2023/08/17 12:04:53;;;;;;;14.95;4.57;;;;;;;;;;5020019;28;20077;-66
2023/08/17 12:07:21;;;;;;;15.35;4.47;;;;;;;;;;5014959;28;20482;-67
2023/08/17 12:09:48;;;;;;;15.65;4.25;;;;;;;;;;5020268;28;20090;-67
2023/08/17 12:12:18;;;;;;;14.75;4.07;;;;;;;;;;5012611;28;20025;-67
2023/08/17 12:14:44;;;;;;;20.77;4.78;;;;;;;;;;5019940;28;20090;-67
2023/08/17 12:17:17;;;;;;;17.60;4.68;;;;;;;;;;5014264;28;20049;-68
2023/08/17 12:19:44;;;;;;;16.88;4.63;;;;;;;;;;5016735;28;20131;-67
2023/08/17 12:22:10;;;;;;;16.67;4.68;;;;;;;;;;5015489;28;20413;-67
2023/08/17 12:24:38;;;;;;;18.30;4.55;;;;;;;;;;4998169;28;20029;-67
2023/08/17 12:27:04;;;;;;;25.50;5.78;;;;;;;;;;5017665;28;20334;-67
2023/08/17 12:29:30;;;;;;;25.13;6.60;;;;;;;;;;5016190;28;20500;-68
2023/08/17 12:32:00;;;;;;;20.42;5.13;;;;;;;;;;5018615;28;20802;-67
2023/08/17 12:34:26;;;;;;;14.68;4.50;;;;;;;;;;5018622;28;20553;-68
2023/08/17 12:36:52;;;;;;;16.92;4.85;;;;;;;;;;5018608;28;20449;-68
2023/08/17 12:39:18;;;;;;;13.57;5.00;;;;;;;;;;5015678;28;20029;-68
2023/08/17 12:41:44;;;;;;;14.52;4.47;;;;;;;;;;5017496;28;20034;-68
2023/08/17 12:44:13;;;;;;;11.35;3.90;;;;;;;;;;5014124;28;20029;-68
2023/08/17 12:46:46;;;;;;;17.80;4.70;;;;;;;;;;5023343;28;20049;-69
2023/08/17 12:49:12;;;;;;;13.50;3.97;;;;;;;;;;4999747;28;20041;-67
2023/08/17 12:51:38;;;;;;;18.10;5.07;;;;;;;;;;5014857;28;20274;-67
2023/08/17 12:54:04;;;;;;;16.55;4.50;;;;;;;;;;5011899;28;20140;-67
2023/08/17 12:56:31;;;;;;;15.80;4.50;;;;;;;;;;5002202;28;20021;-68
2023/08/17 12:58:57;;;;;;;17.40;4.88;;;;;;;;;;5015767;28;20036;-67
2023/08/17 13:01:23;;;;;;;17.20;4.75;;;;;;;;;;5015328;28;20111;-67
2023/08/17 13:03:49;;;;;;;14.25;4.30;;;;;;;;;;5001424;28;20468;-67
2023/08/17 13:06:15;;;;;;;14.23;4.72;;;;;;;;;;5016690;28;20087;-67
2023/08/17 13:08:41;;;;;;;14.52;4.53;;;;;;;;;;5016245;28;20021;-67
2023/08/17 13:11:07;;;;;;;14.23;4.20;;;;;;;;;;5014180;28;20449;-67
2023/08/17 13:13:33;;;;;;;12.05;3.78;;;;;;;;;;5013390;28;20136;-68
2023/08/17 13:16:00;;;;;;;14.52;4.00;;;;;;;;;;5020469;28;20128;-68
2023/08/17 13:18:26;;;;;;;16.65;4.45;;;;;;;;;;5002740;28;20700;-67
2023/08/17 13:20:52;;;;;;;15.15;4.80;;;;;;;;;;5019573;28;20504;-68
2023/08/17 13:23:18;;;;;;;16.83;4.82;;;;;;;;;;5001508;28;20025;-67
2023/08/17 13:25:44;;;;;;;14.98;4.18;;;;;;;;;;5018274;28;20493;-68
2023/08/17 13:28:10;;;;;;;17.13;4.82;;;;;;;;;;5017605;28;20045;-67
2023/08/17 13:30:36;;;;;;;15.48;4.22;;;;;;;;;;5014771;28;20025;-67
2023/08/17 13:33:03;;;;;;;15.13;4.60;;;;;;;;;;4998413;28;20388;-67
2023/08/17 13:35:29;;;;;;;11.25;3.65;;;;;;;;;;5001603;28;20084;-66
2023/08/17 13:37:57;;;;;;;13.32;3.90;;;;;;;;;;5018918;28;20526;-68
2023/08/17 13:40:23;;;;;;;11.43;3.75;;;;;;;;;;5019943;28;20036;-68
2023/08/17 13:42:49;;;;;;;14.45;3.85;;;;;;;;;;5019558;28;20033;-67
2023/08/17 13:45:15;;;;;;;15.23;4.45;;;;;;;;;;5017679;28;20506;-67
2023/08/17 13:47:42;;;;;;;16.10;4.50;;;;;;;;;;5022463;28;20028;-67
2023/08/17 13:50:08;;;;;;;14.93;4.25;;;;;;;;;;5016937;28;20140;-68
2023/08/17 13:52:34;;;;;;;15.38;4.38;;;;;;;;;;5020478;28;20120;-67
2023/08/17 13:55:01;;;;;;;14.65;3.83;;;;;;;;;;5001784;28;20189;-68
2023/08/17 13:57:27;;;;;;;14.38;4.40;;;;;;;;;;5018918;28;20036;-67
2023/08/17 13:59:53;;;;;;;13.40;4.40;;;;;;;;;;5018683;28;20037;-67
2023/08/17 14:02:20;;;;;;;16.83;4.10;;;;;;;;;;5016278;28;20033;-68
2023/08/17 14:04:46;;;;;;;18.55;4.60;;;;;;;;;;5018983;28;20632;-66
2023/08/17 14:07:12;;;;;;;12.57;4.05;;;;;;;;;;5016720;28;20090;-66
2023/08/17 14:09:38;;;;;;;12.85;4.05;;;;;;;;;;5018899;28;20446;-69
2023/08/17 14:12:04;;;;;;;13.57;4.32;;;;;;;;;;5015844;28;20102;-69
2023/08/17 14:14:31;;;;;;;14.13;4.03;;;;;;;;;;5021662;28;20123;-69
2023/08/17 14:16:57;;;;;;;11.27;3.85;;;;;;;;;;5002476;28;20136;-69
2023/08/17 14:19:24;;;;;;;14.48;4.53;;;;;;;;;;5013707;28;20607;-69
2023/08/17 14:21:51;;;;;;;13.50;4.38;;;;;;;;;;5002931;28;20579;-69
2023/08/17 14:24:17;;;;;;;15.77;4.43;;;;;;;;;;5015560;28;20030;-69
2023/08/17 14:26:43;;;;;;;13.63;4.55;;;;;;;;;;5019848;28;20103;-66
2023/08/17 14:29:09;;;;;;;15.38;4.38;;;;;;;;;;5016655;28;20033;-68